sensor_id;sensor_type;location;lat;lon;timestamp;P1;durP1;ratioP1;P2;durP2;ratioP2
25443;SDS011;13368;52.346;4.678;2023-07-08T00:00:00;1.8;;;1.7;;
25443;SDS011;13368;52.346;4.678;2023-07-08T00:05:00;1.8;;;1.4;;
25443;SDS011;13368;52.346;4.678;2023-07-08T00:10:00;2.3;;;1.7;;
25443;SDS011;13368;52.346;4.678;2023-07-08T00:15:00;1.3;;;1.2;;
25443;SDS011;13368;52.346;4.678;2023-07-08T00:20:00;2.1;;;1.6;;
25443;SDS011;13368;52.346;4.678;2023-07-08T00:25:00;1.9;;;1.5;;
25443;SDS011;13368;52.346;4.678;2023-07-08T00:30:00;2.0;;;1.4;;
25443;SDS011;13368;52.346;4.678;2023-07-08T00:35:00;1.9;;;1.4;;
25443;SDS011;13368;52.346;4.678;2023-07-08T00:40:00;2.4;;;1.5;;
25443;SDS011;13368;52.346;4.678;2023-07-08T00:45:00;1.6;;;1.5;;
25443;SDS011;13368;52.346;4.678;2023-07-08T00:50:00;2.3;;;1.6;;
25443;SDS011;13368;52.346;4.678;2023-07-08T00:55:01;2.5;;;2.0;;
25443;SDS011;13368;52.346;4.678;2023-07-08T01:00:02;1.7;;;1.5;;
25443;SDS011;13368;52.346;4.678;2023-07-08T01:05:01;1.4;;;1.3;;
25443;SDS011;13368;52.346;4.678;2023-07-08T01:10:01;3.3;;;2.0;;
25443;SDS011;13368;52.346;4.678;2023-07-08T01:15:00;1.5;;;1.2;;
25443;SDS011;13368;52.346;4.678;2023-07-08T01:20:00;2.2;;;1.6;;
25443;SDS011;13368;52.346;4.678;2023-07-08T01:25:00;1.7;;;1.5;;
25443;SDS011;13368;52.346;4.678;2023-07-08T01:30:00;2.0;;;1.2;;
25443;SDS011;13368;52.346;4.678;2023-07-08T01:35:00;2.1;;;1.3;;
25443;SDS011;13368;52.346;4.678;2023-07-08T01:45:00;1.7;;;1.4;;
25443;SDS011;13368;52.346;4.678;2023-07-08T01:50:00;4.9;;;1.6;;
25443;SDS011;13368;52.346;4.678;2023-07-08T01:55:00;2.8;;;1.3;;
25443;SDS011;13368;52.346;4.678;2023-07-08T02:00:00;6.9;;;1.6;;
25443;SDS011;13368;52.346;4.678;2023-07-08T02:05:00;1.9;;;1.4;;
25443;SDS011;13368;52.346;4.678;2023-07-08T02:10:01;1.4;;;1.3;;
25443;SDS011;13368;52.346;4.678;2023-07-08T02:15:00;2.5;;;1.3;;
25443;SDS011;13368;52.346;4.678;2023-07-08T02:20:00;1.2;;;1.1;;
25443;SDS011;13368;52.346;4.678;2023-07-08T02:25:00;1.4;;;1.3;;
25443;SDS011;13368;52.346;4.678;2023-07-08T02:30:00;2.1;;;1.8;;
25443;SDS011;13368;52.346;4.678;2023-07-08T02:35:00;2.7;;;1.9;;
25443;SDS011;13368;52.346;4.678;2023-07-08T02:40:00;3.0;;;1.5;;
25443;SDS011;13368;52.346;4.678;2023-07-08T02:45:00;4.0;;;1.7;;
25443;SDS011;13368;52.346;4.678;2023-07-08T02:50:00;1.1;;;1.1;;
25443;SDS011;13368;52.346;4.678;2023-07-08T02:55:00;1.9;;;1.7;;
25443;SDS011;13368;52.346;4.678;2023-07-08T03:00:00;1.6;;;1.5;;
25443;SDS011;13368;52.346;4.678;2023-07-08T03:05:00;1.6;;;1.5;;
25443;SDS011;13368;52.346;4.678;2023-07-08T03:10:00;2.1;;;1.6;;
25443;SDS011;13368;52.346;4.678;2023-07-08T03:15:00;2.6;;;1.9;;
25443;SDS011;13368;52.346;4.678;2023-07-08T03:20:00;1.9;;;1.6;;
25443;SDS011;13368;52.346;4.678;2023-07-08T03:25:00;2.5;;;2.0;;
25443;SDS011;13368;52.346;4.678;2023-07-08T03:30:00;1.7;;;1.6;;
25443;SDS011;13368;52.346;4.678;2023-07-08T03:35:00;1.9;;;1.4;;
25443;SDS011;13368;52.346;4.678;2023-07-08T03:40:00;1.8;;;1.7;;
25443;SDS011;13368;52.346;4.678;2023-07-08T03:45:00;2.0;;;1.8;;
25443;SDS011;13368;52.346;4.678;2023-07-08T03:50:00;1.9;;;1.5;;
25443;SDS011;13368;52.346;4.678;2023-07-08T03:55:00;1.8;;;1.7;;
25443;SDS011;13368;52.346;4.678;2023-07-08T04:00:00;1.2;;;1.1;;
25443;SDS011;13368;52.346;4.678;2023-07-08T04:05:00;1.8;;;1.6;;
25443;SDS011;13368;52.346;4.678;2023-07-08T04:10:00;2.5;;;1.7;;
25443;SDS011;13368;52.346;4.678;2023-07-08T04:15:00;2.5;;;1.7;;
25443;SDS011;13368;52.346;4.678;2023-07-08T04:20:00;1.6;;;1.2;;
25443;SDS011;13368;52.346;4.678;2023-07-08T04:25:00;1.3;;;1.2;;
25443;SDS011;13368;52.346;4.678;2023-07-08T04:30:00;1.3;;;1.2;;
25443;SDS011;13368;52.346;4.678;2023-07-08T04:35:00;1.2;;;1.2;;
25443;SDS011;13368;52.346;4.678;2023-07-08T04:40:00;1.6;;;1.5;;
25443;SDS011;13368;52.346;4.678;2023-07-08T04:45:00;1.3;;;1.2;;
25443;SDS011;13368;52.346;4.678;2023-07-08T04:50:00;1.9;;;1.3;;
25443;SDS011;13368;52.346;4.678;2023-07-08T04:55:00;1.6;;;1.5;;
25443;SDS011;13368;52.346;4.678;2023-07-08T05:00:00;1.6;;;1.5;;
25443;SDS011;13368;52.346;4.678;2023-07-08T05:05:00;1.4;;;1.3;;
25443;SDS011;13368;52.346;4.678;2023-07-08T05:10:00;2.7;;;1.8;;
25443;SDS011;13368;52.346;4.678;2023-07-08T05:15:00;1.4;;;1.3;;
25443;SDS011;13368;52.346;4.678;2023-07-08T05:20:01;1.9;;;1.3;;
25443;SDS011;13368;52.346;4.678;2023-07-08T05:25:00;2.1;;;1.7;;
25443;SDS011;13368;52.346;4.678;2023-07-08T05:30:00;1.5;;;1.4;;
25443;SDS011;13368;52.346;4.678;2023-07-08T05:35:00;2.3;;;1.6;;
25443;SDS011;13368;52.346;4.678;2023-07-08T05:40:00;1.5;;;1.4;;
25443;SDS011;13368;52.346;4.678;2023-07-08T05:45:00;2.3;;;1.7;;
25443;SDS011;13368;52.346;4.678;2023-07-08T05:50:00;1.7;;;1.4;;
25443;SDS011;13368;52.346;4.678;2023-07-08T05:55:00;1.4;;;1.3;;
25443;SDS011;13368;52.346;4.678;2023-07-08T06:00:00;3.7;;;1.8;;
25443;SDS011;13368;52.346;4.678;2023-07-08T06:05:00;1.3;;;1.2;;
25443;SDS011;13368;52.346;4.678;2023-07-08T06:10:00;1.8;;;1.3;;
25443;SDS011;13368;52.346;4.678;2023-07-08T06:15:00;1.5;;;1.4;;
25443;SDS011;13368;52.346;4.678;2023-07-08T06:20:00;2.4;;;1.7;;
25443;SDS011;13368;52.346;4.678;2023-07-08T06:25:00;1.5;;;1.3;;
25443;SDS011;13368;52.346;4.678;2023-07-08T06:30:00;2.1;;;1.6;;
25443;SDS011;13368;52.346;4.678;2023-07-08T06:35:00;1.5;;;1.4;;
25443;SDS011;13368;52.346;4.678;2023-07-08T06:40:00;1.5;;;1.4;;
25443;SDS011;13368;52.346;4.678;2023-07-08T06:45:00;1.8;;;1.4;;
25443;SDS011;13368;52.346;4.678;2023-07-08T06:50:00;1.8;;;1.3;;
25443;SDS011;13368;52.346;4.678;2023-07-08T06:55:00;1.6;;;1.5;;
25443;SDS011;13368;52.346;4.678;2023-07-08T07:00:00;1.1;;;1.0;;
25443;SDS011;13368;52.346;4.678;2023-07-08T07:05:00;2.2;;;1.5;;
25443;SDS011;13368;52.346;4.678;2023-07-08T07:10:00;1.4;;;1.0;;
25443;SDS011;13368;52.346;4.678;2023-07-08T07:15:00;1.2;;;1.1;;
25443;SDS011;13368;52.346;4.678;2023-07-08T07:20:00;2.2;;;1.7;;
25443;SDS011;13368;52.346;4.678;2023-07-08T07:25:00;1.6;;;1.5;;
25443;SDS011;13368;52.346;4.678;2023-07-08T07:30:00;1.6;;;1.3;;
25443;SDS011;13368;52.346;4.678;2023-07-08T07:35:00;2.3;;;1.5;;
25443;SDS011;13368;52.346;4.678;2023-07-08T07:40:00;2.6;;;1.4;;
25443;SDS011;13368;52.346;4.678;2023-07-08T07:45:00;2.2;;;1.6;;
25443;SDS011;13368;52.346;4.678;2023-07-08T07:50:00;1.4;;;1.3;;
25443;SDS011;13368;52.346;4.678;2023-07-08T07:55:01;2.6;;;1.6;;
25443;SDS011;13368;52.346;4.678;2023-07-08T08:00:00;3.9;;;2.0;;
25443;SDS011;13368;52.346;4.678;2023-07-08T08:05:00;4.2;;;1.8;;
25443;SDS011;13368;52.346;4.678;2023-07-08T08:10:00;1.5;;;1.3;;
25443;SDS011;13368;52.346;4.678;2023-07-08T08:15:00;1.9;;;1.6;;
25443;SDS011;13368;52.346;4.678;2023-07-08T08:20:00;2.8;;;1.8;;
25443;SDS011;13368;52.346;4.678;2023-07-08T08:25:00;4.7;;;1.7;;
25443;SDS011;13368;52.346;4.678;2023-07-08T08:30:00;3.3;;;2.5;;
25443;SDS011;13368;52.346;4.678;2023-07-08T08:35:00;7.2;;;2.3;;
25443;SDS011;13368;52.346;4.678;2023-07-08T08:40:00;5.3;;;2.7;;
25443;SDS011;13368;52.346;4.678;2023-07-08T08:45:00;4.3;;;2.3;;
25443;SDS011;13368;52.346;4.678;2023-07-08T08:50:01;2.9;;;1.7;;
25443;SDS011;13368;52.346;4.678;2023-07-08T08:55:00;1.7;;;1.6;;
25443;SDS011;13368;52.346;4.678;2023-07-08T09:00:00;2.1;;;1.6;;
25443;SDS011;13368;52.346;4.678;2023-07-08T09:05:02;3.5;;;1.8;;
25443;SDS011;13368;52.346;4.678;2023-07-08T09:10:01;2.5;;;1.7;;
25443;SDS011;13368;52.346;4.678;2023-07-08T09:15:00;2.0;;;1.8;;
25443;SDS011;13368;52.346;4.678;2023-07-08T09:20:03;4.8;;;1.8;;
25443;SDS011;13368;52.346;4.678;2023-07-08T09:25:01;2.5;;;1.7;;
25443;SDS011;13368;52.346;4.678;2023-07-08T09:30:00;2.7;;;1.9;;
25443;SDS011;13368;52.346;4.678;2023-07-08T09:35:03;2.7;;;1.4;;
25443;SDS011;13368;52.346;4.678;2023-07-08T09:40:01;2.6;;;2.0;;
25443;SDS011;13368;52.346;4.678;2023-07-08T09:45:01;2.5;;;1.6;;
25443;SDS011;13368;52.346;4.678;2023-07-08T09:50:00;2.3;;;1.4;;
25443;SDS011;13368;52.346;4.678;2023-07-08T09:55:00;3.4;;;1.7;;
25443;SDS011;13368;52.346;4.678;2023-07-08T10:00:00;2.6;;;1.6;;
25443;SDS011;13368;52.346;4.678;2023-07-08T10:05:01;1.8;;;1.4;;
25443;SDS011;13368;52.346;4.678;2023-07-08T10:10:02;5.8;;;2.1;;
25443;SDS011;13368;52.346;4.678;2023-07-08T10:15:01;6.8;;;1.8;;
25443;SDS011;13368;52.346;4.678;2023-07-08T10:20:00;2.3;;;1.8;;
25443;SDS011;13368;52.346;4.678;2023-07-08T10:25:03;2.7;;;2.0;;
25443;SDS011;13368;52.346;4.678;2023-07-08T10:30:07;4.6;;;2.3;;
25443;SDS011;13368;52.346;4.678;2023-07-08T10:35:01;2.3;;;1.6;;
25443;SDS011;13368;52.346;4.678;2023-07-08T10:40:05;11.0;;;2.7;;
25443;SDS011;13368;52.346;4.678;2023-07-08T10:45:03;2.4;;;1.8;;
25443;SDS011;13368;52.346;4.678;2023-07-08T10:50:05;5.5;;;1.9;;
25443;SDS011;13368;52.346;4.678;2023-07-08T10:55:04;2.7;;;2.1;;
25443;SDS011;13368;52.346;4.678;2023-07-08T11:00:02;3.0;;;1.8;;
25443;SDS011;13368;52.346;4.678;2023-07-08T11:05:03;3.8;;;1.9;;
25443;SDS011;13368;52.346;4.678;2023-07-08T11:10:01;4.0;;;2.0;;
25443;SDS011;13368;52.346;4.678;2023-07-08T11:15:02;3.9;;;1.8;;
25443;SDS011;13368;52.346;4.678;2023-07-08T11:20:02;3.8;;;1.6;;
25443;SDS011;13368;52.346;4.678;2023-07-08T11:25:00;3.3;;;2.0;;
25443;SDS011;13368;52.346;4.678;2023-07-08T11:30:02;2.5;;;1.9;;
25443;SDS011;13368;52.346;4.678;2023-07-08T11:35:01;2.0;;;1.8;;
25443;SDS011;13368;52.346;4.678;2023-07-08T11:40:05;2.8;;;2.1;;
25443;SDS011;13368;52.346;4.678;2023-07-08T11:45:00;2.4;;;1.7;;
25443;SDS011;13368;52.346;4.678;2023-07-08T11:50:00;3.1;;;1.9;;
25443;SDS011;13368;52.346;4.678;2023-07-08T11:55:03;8.1;;;1.9;;
25443;SDS011;13368;52.346;4.678;2023-07-08T12:00:06;4.0;;;1.9;;
25443;SDS011;13368;52.346;4.678;2023-07-08T12:05:02;3.5;;;2.0;;
25443;SDS011;13368;52.346;4.678;2023-07-08T12:10:03;10.3;;;2.8;;
25443;SDS011;13368;52.346;4.678;2023-07-08T12:15:05;6.7;;;3.0;;
25443;SDS011;13368;52.346;4.678;2023-07-08T12:20:01;4.1;;;2.4;;
25443;SDS011;13368;52.346;4.678;2023-07-08T12:25:00;2.8;;;2.1;;
25443;SDS011;13368;52.346;4.678;2023-07-08T12:30:00;5.3;;;2.3;;
25443;SDS011;13368;52.346;4.678;2023-07-08T12:35:00;4.4;;;2.0;;
25443;SDS011;13368;52.346;4.678;2023-07-08T12:40:00;5.7;;;2.2;;
25443;SDS011;13368;52.346;4.678;2023-07-08T12:45:00;4.5;;;2.4;;
25443;SDS011;13368;52.346;4.678;2023-07-08T12:50:00;5.6;;;2.1;;
25443;SDS011;13368;52.346;4.678;2023-07-08T12:55:00;3.0;;;2.0;;
25443;SDS011;13368;52.346;4.678;2023-07-08T13:00:00;3.8;;;1.8;;
25443;SDS011;13368;52.346;4.678;2023-07-08T13:05:00;5.4;;;2.4;;
25443;SDS011;13368;52.346;4.678;2023-07-08T13:10:00;3.5;;;1.9;;
25443;SDS011;13368;52.346;4.678;2023-07-08T13:15:00;3.5;;;2.0;;
25443;SDS011;13368;52.346;4.678;2023-07-08T13:20:00;10.3;;;2.1;;
25443;SDS011;13368;52.346;4.678;2023-07-08T13:25:01;3.0;;;1.7;;
25443;SDS011;13368;52.346;4.678;2023-07-08T13:30:10;4.6;;;2.5;;
25443;SDS011;13368;52.346;4.678;2023-07-08T13:35:00;3.3;;;2.4;;
25443;SDS011;13368;52.346;4.678;2023-07-08T13:40:00;4.0;;;2.3;;
25443;SDS011;13368;52.346;4.678;2023-07-08T13:45:00;3.8;;;1.9;;
25443;SDS011;13368;52.346;4.678;2023-07-08T13:50:01;2.6;;;1.9;;
25443;SDS011;13368;52.346;4.678;2023-07-08T13:55:01;2.7;;;1.8;;
25443;SDS011;13368;52.346;4.678;2023-07-08T14:00:00;1.9;;;1.6;;
25443;SDS011;13368;52.346;4.678;2023-07-08T14:05:01;2.5;;;1.9;;
25443;SDS011;13368;52.346;4.678;2023-07-08T14:10:00;3.6;;;1.5;;
25443;SDS011;13368;52.346;4.678;2023-07-08T14:15:00;3.4;;;2.0;;
25443;SDS011;13368;52.346;4.678;2023-07-08T14:20:00;2.4;;;1.6;;
25443;SDS011;13368;52.346;4.678;2023-07-08T14:25:01;2.8;;;1.6;;
25443;SDS011;13368;52.346;4.678;2023-07-08T14:30:00;2.9;;;2.2;;
25443;SDS011;13368;52.346;4.678;2023-07-08T14:35:09;2.5;;;1.7;;
25443;SDS011;13368;52.346;4.678;2023-07-08T14:40:00;6.6;;;2.1;;
25443;SDS011;13368;52.346;4.678;2023-07-08T14:45:00;4.1;;;1.8;;
25443;SDS011;13368;52.346;4.678;2023-07-08T14:50:00;4.8;;;1.8;;
25443;SDS011;13368;52.346;4.678;2023-07-08T14:55:00;2.4;;;1.7;;
25443;SDS011;13368;52.346;4.678;2023-07-08T15:00:00;2.6;;;1.7;;
25443;SDS011;13368;52.346;4.678;2023-07-08T15:05:00;2.4;;;1.7;;
25443;SDS011;13368;52.346;4.678;2023-07-08T15:10:00;3.1;;;2.0;;
25443;SDS011;13368;52.346;4.678;2023-07-08T15:15:00;3.1;;;2.0;;
25443;SDS011;13368;52.346;4.678;2023-07-08T15:20:00;3.6;;;2.1;;
25443;SDS011;13368;52.346;4.678;2023-07-08T15:25:00;2.5;;;1.6;;
25443;SDS011;13368;52.346;4.678;2023-07-08T15:30:00;2.5;;;1.6;;
25443;SDS011;13368;52.346;4.678;2023-07-08T15:35:00;1.7;;;1.3;;
25443;SDS011;13368;52.346;4.678;2023-07-08T15:40:00;1.8;;;1.6;;
25443;SDS011;13368;52.346;4.678;2023-07-08T15:45:00;3.4;;;1.5;;
25443;SDS011;13368;52.346;4.678;2023-07-08T15:50:00;4.3;;;1.6;;
25443;SDS011;13368;52.346;4.678;2023-07-08T15:55:00;3.2;;;2.0;;
25443;SDS011;13368;52.346;4.678;2023-07-08T16:00:00;4.3;;;1.9;;
25443;SDS011;13368;52.346;4.678;2023-07-08T16:05:00;3.3;;;2.1;;
25443;SDS011;13368;52.346;4.678;2023-07-08T16:10:00;3.1;;;1.6;;
25443;SDS011;13368;52.346;4.678;2023-07-08T16:15:00;2.8;;;2.0;;
25443;SDS011;13368;52.346;4.678;2023-07-08T16:20:00;2.0;;;1.8;;
25443;SDS011;13368;52.346;4.678;2023-07-08T16:25:00;2.6;;;1.7;;
25443;SDS011;13368;52.346;4.678;2023-07-08T16:30:00;3.1;;;1.9;;
25443;SDS011;13368;52.346;4.678;2023-07-08T16:35:00;4.7;;;2.0;;
25443;SDS011;13368;52.346;4.678;2023-07-08T16:40:00;4.0;;;2.0;;
25443;SDS011;13368;52.346;4.678;2023-07-08T16:45:00;3.2;;;1.8;;
25443;SDS011;13368;52.346;4.678;2023-07-08T16:50:00;1.9;;;1.7;;
25443;SDS011;13368;52.346;4.678;2023-07-08T16:55:00;4.2;;;2.2;;
25443;SDS011;13368;52.346;4.678;2023-07-08T17:00:00;3.2;;;1.7;;
25443;SDS011;13368;52.346;4.678;2023-07-08T17:05:00;3.2;;;2.2;;
25443;SDS011;13368;52.346;4.678;2023-07-08T17:10:00;4.9;;;2.6;;
25443;SDS011;13368;52.346;4.678;2023-07-08T17:15:00;4.7;;;2.5;;
25443;SDS011;13368;52.346;4.678;2023-07-08T17:20:05;4.2;;;2.5;;
25443;SDS011;13368;52.346;4.678;2023-07-08T17:25:00;2.9;;;2.0;;
25443;SDS011;13368;52.346;4.678;2023-07-08T17:30:00;2.7;;;1.9;;
25443;SDS011;13368;52.346;4.678;2023-07-08T17:35:00;7.9;;;2.5;;
25443;SDS011;13368;52.346;4.678;2023-07-08T17:40:00;3.6;;;2.7;;
25443;SDS011;13368;52.346;4.678;2023-07-08T17:45:00;4.6;;;2.5;;
25443;SDS011;13368;52.346;4.678;2023-07-08T17:50:00;5.8;;;3.8;;
25443;SDS011;13368;52.346;4.678;2023-07-08T17:55:00;5.1;;;3.2;;
25443;SDS011;13368;52.346;4.678;2023-07-08T18:00:00;7.7;;;3.4;;
25443;SDS011;13368;52.346;4.678;2023-07-08T18:05:00;4.7;;;3.2;;
25443;SDS011;13368;52.346;4.678;2023-07-08T18:10:00;5.8;;;3.6;;
25443;SDS011;13368;52.346;4.678;2023-07-08T18:15:00;8.3;;;4.0;;
25443;SDS011;13368;52.346;4.678;2023-07-08T18:20:00;5.0;;;3.3;;
25443;SDS011;13368;52.346;4.678;2023-07-08T18:25:00;5.7;;;2.9;;
25443;SDS011;13368;52.346;4.678;2023-07-08T18:30:00;5.0;;;3.4;;
25443;SDS011;13368;52.346;4.678;2023-07-08T18:35:00;6.6;;;4.2;;
25443;SDS011;13368;52.346;4.678;2023-07-08T18:40:00;9.7;;;3.0;;
25443;SDS011;13368;52.346;4.678;2023-07-08T18:45:00;7.0;;;4.3;;
25443;SDS011;13368;52.346;4.678;2023-07-08T18:50:00;5.5;;;3.7;;
25443;SDS011;13368;52.346;4.678;2023-07-08T18:55:00;6.3;;;3.3;;
25443;SDS011;13368;52.346;4.678;2023-07-08T19:00:00;5.8;;;3.2;;
25443;SDS011;13368;52.346;4.678;2023-07-08T19:05:00;4.1;;;3.1;;
25443;SDS011;13368;52.346;4.678;2023-07-08T19:10:00;4.0;;;3.4;;
25443;SDS011;13368;52.346;4.678;2023-07-08T19:15:00;3.9;;;2.7;;
25443;SDS011;13368;52.346;4.678;2023-07-08T19:20:00;7.1;;;3.3;;
25443;SDS011;13368;52.346;4.678;2023-07-08T19:25:00;5.4;;;2.8;;
25443;SDS011;13368;52.346;4.678;2023-07-08T19:30:00;6.8;;;2.6;;
25443;SDS011;13368;52.346;4.678;2023-07-08T19:35:00;8.1;;;3.4;;
25443;SDS011;13368;52.346;4.678;2023-07-08T19:40:00;4.7;;;2.9;;
25443;SDS011;13368;52.346;4.678;2023-07-08T19:45:00;6.0;;;3.2;;
25443;SDS011;13368;52.346;4.678;2023-07-08T19:50:00;3.5;;;3.0;;
25443;SDS011;13368;52.346;4.678;2023-07-08T19:55:00;4.3;;;2.9;;
25443;SDS011;13368;52.346;4.678;2023-07-08T20:00:00;9.6;;;3.1;;
25443;SDS011;13368;52.346;4.678;2023-07-08T20:05:00;7.0;;;3.6;;
25443;SDS011;13368;52.346;4.678;2023-07-08T20:10:00;3.2;;;2.6;;
25443;SDS011;13368;52.346;4.678;2023-07-08T20:15:00;4.0;;;2.8;;
25443;SDS011;13368;52.346;4.678;2023-07-08T20:20:00;3.5;;;2.3;;
25443;SDS011;13368;52.346;4.678;2023-07-08T20:25:00;6.1;;;2.9;;
25443;SDS011;13368;52.346;4.678;2023-07-08T20:30:00;4.4;;;3.1;;
25443;SDS011;13368;52.346;4.678;2023-07-08T20:35:01;4.2;;;3.2;;
25443;SDS011;13368;52.346;4.678;2023-07-08T20:40:00;4.3;;;2.5;;
25443;SDS011;13368;52.346;4.678;2023-07-08T20:45:00;6.6;;;3.1;;
25443;SDS011;13368;52.346;4.678;2023-07-08T20:50:00;4.4;;;3.0;;
25443;SDS011;13368;52.346;4.678;2023-07-08T20:55:00;5.7;;;3.0;;
25443;SDS011;13368;52.346;4.678;2023-07-08T21:00:00;8.2;;;2.9;;
25443;SDS011;13368;52.346;4.678;2023-07-08T21:05:00;3.9;;;2.6;;
25443;SDS011;13368;52.346;4.678;2023-07-08T21:10:00;2.9;;;2.6;;
25443;SDS011;13368;52.346;4.678;2023-07-08T21:15:00;3.5;;;2.3;;
25443;SDS011;13368;52.346;4.678;2023-07-08T21:20:00;9.0;;;2.9;;
25443;SDS011;13368;52.346;4.678;2023-07-08T21:25:00;4.8;;;2.8;;
25443;SDS011;13368;52.346;4.678;2023-07-08T21:30:00;4.4;;;3.2;;
25443;SDS011;13368;52.346;4.678;2023-07-08T21:35:00;4.9;;;2.9;;
25443;SDS011;13368;52.346;4.678;2023-07-08T21:40:00;5.7;;;2.9;;
25443;SDS011;13368;52.346;4.678;2023-07-08T21:45:00;4.7;;;3.0;;
25443;SDS011;13368;52.346;4.678;2023-07-08T21:50:00;6.0;;;2.7;;
25443;SDS011;13368;52.346;4.678;2023-07-08T21:55:00;5.5;;;3.2;;
25443;SDS011;13368;52.346;4.678;2023-07-08T22:00:00;6.1;;;3.0;;
25443;SDS011;13368;52.346;4.678;2023-07-08T22:05:00;3.6;;;2.2;;
25443;SDS011;13368;52.346;4.678;2023-07-08T22:10:00;3.4;;;2.4;;
25443;SDS011;13368;52.346;4.678;2023-07-08T22:15:00;5.1;;;2.9;;
25443;SDS011;13368;52.346;4.678;2023-07-08T22:20:00;4.2;;;2.9;;
25443;SDS011;13368;52.346;4.678;2023-07-08T22:25:00;3.9;;;2.3;;
25443;SDS011;13368;52.346;4.678;2023-07-08T22:30:00;3.8;;;3.1;;
25443;SDS011;13368;52.346;4.678;2023-07-08T22:35:00;5.8;;;2.9;;
25443;SDS011;13368;52.346;4.678;2023-07-08T22:40:00;5.5;;;3.0;;
25443;SDS011;13368;52.346;4.678;2023-07-08T22:45:00;4.0;;;2.1;;
25443;SDS011;13368;52.346;4.678;2023-07-08T22:50:00;4.5;;;3.0;;
25443;SDS011;13368;52.346;4.678;2023-07-08T22:55:00;5.2;;;3.5;;
25443;SDS011;13368;52.346;4.678;2023-07-08T23:00:00;5.5;;;2.6;;
25443;SDS011;13368;52.346;4.678;2023-07-08T23:05:00;3.8;;;2.9;;
25443;SDS011;13368;52.346;4.678;2023-07-08T23:10:00;4.2;;;2.9;;
25443;SDS011;13368;52.346;4.678;2023-07-08T23:15:00;3.9;;;3.0;;
25443;SDS011;13368;52.346;4.678;2023-07-08T23:20:00;4.9;;;2.6;;
25443;SDS011;13368;52.346;4.678;2023-07-08T23:25:00;3.7;;;2.7;;
25443;SDS011;13368;52.346;4.678;2023-07-08T23:30:00;4.8;;;3.2;;
25443;SDS011;13368;52.346;4.678;2023-07-08T23:35:00;5.7;;;3.2;;
25443;SDS011;13368;52.346;4.678;2023-07-08T23:40:00;3.9;;;2.7;;
25443;SDS011;13368;52.346;4.678;2023-07-08T23:45:00;4.5;;;3.0;;
25443;SDS011;13368;52.346;4.678;2023-07-08T23:50:00;4.2;;;3.2;;
25443;SDS011;13368;52.346;4.678;2023-07-08T23:55:00;4.3;;;2.7;;
